sensor_id;sensor_type;location;lat;lon;timestamp;P1;durP1;ratioP1;P2;durP2;ratioP2
74215;SDS011;62577;53.378;-2.914;2022-11-04T00:01:41;25.73;;;12.32;;
74215;SDS011;62577;53.378;-2.914;2022-11-04T00:04:07;26.58;;;12.27;;
74215;SDS011;62577;53.378;-2.914;2022-11-04T00:06:34;25.63;;;12.75;;
74215;SDS011;62577;53.378;-2.914;2022-11-04T00:09:00;23.85;;;11.15;;
74215;SDS011;62577;53.378;-2.914;2022-11-04T00:11:26;24.15;;;11.07;;
74215;SDS011;62577;53.378;-2.914;2022-11-04T00:14:12;27.40;;;12.57;;
74215;SDS011;62577;53.378;-2.914;2022-11-04T00:16:38;27.20;;;13.82;;
74215;SDS011;62577;53.378;-2.914;2022-11-04T00:19:23;25.92;;;12.88;;
74215;SDS011;62577;53.378;-2.914;2022-11-04T00:21:49;19.45;;;10.88;;
74215;SDS011;62577;53.378;-2.914;2022-11-04T00:24:34;24.17;;;12.50;;
74215;SDS011;62577;53.378;-2.914;2022-11-04T00:27:16;26.60;;;13.52;;
74215;SDS011;62577;53.378;-2.914;2022-11-04T00:30:01;23.83;;;13.93;;
74215;SDS011;62577;53.378;-2.914;2022-11-04T00:32:27;26.67;;;13.57;;
74215;SDS011;62577;53.378;-2.914;2022-11-04T00:35:23;22.10;;;13.27;;
74215;SDS011;62577;53.378;-2.914;2022-11-04T00:37:49;25.27;;;12.82;;
74215;SDS011;62577;53.378;-2.914;2022-11-04T00:40:15;25.10;;;12.73;;
74215;SDS011;62577;53.378;-2.914;2022-11-04T00:42:42;28.90;;;12.63;;
74215;SDS011;62577;53.378;-2.914;2022-11-04T00:45:08;27.27;;;14.80;;
74215;SDS011;62577;53.378;-2.914;2022-11-04T00:47:34;29.65;;;13.65;;
74215;SDS011;62577;53.378;-2.914;2022-11-04T00:50:00;33.80;;;15.25;;
74215;SDS011;62577;53.378;-2.914;2022-11-04T00:52:26;25.63;;;12.95;;
74215;SDS011;62577;53.378;-2.914;2022-11-04T00:54:52;28.23;;;13.43;;
74215;SDS011;62577;53.378;-2.914;2022-11-04T00:57:18;28.08;;;13.43;;
74215;SDS011;62577;53.378;-2.914;2022-11-04T00:59:44;24.83;;;13.27;;
74215;SDS011;62577;53.378;-2.914;2022-11-04T01:02:10;29.50;;;14.20;;
74215;SDS011;62577;53.378;-2.914;2022-11-04T01:04:37;26.83;;;13.80;;
74215;SDS011;62577;53.378;-2.914;2022-11-04T01:07:04;28.90;;;13.15;;
74215;SDS011;62577;53.378;-2.914;2022-11-04T01:09:30;24.13;;;13.88;;
74215;SDS011;62577;53.378;-2.914;2022-11-04T01:11:56;26.15;;;14.43;;
74215;SDS011;62577;53.378;-2.914;2022-11-04T01:14:22;28.02;;;14.63;;
74215;SDS011;62577;53.378;-2.914;2022-11-04T01:16:48;27.80;;;14.00;;
74215;SDS011;62577;53.378;-2.914;2022-11-04T01:19:14;27.98;;;14.30;;
74215;SDS011;62577;53.378;-2.914;2022-11-04T01:21:40;23.70;;;13.27;;
74215;SDS011;62577;53.378;-2.914;2022-11-04T01:24:07;31.58;;;14.98;;
74215;SDS011;62577;53.378;-2.914;2022-11-04T01:26:33;30.70;;;15.80;;
74215;SDS011;62577;53.378;-2.914;2022-11-04T01:28:59;32.97;;;15.57;;
74215;SDS011;62577;53.378;-2.914;2022-11-04T01:31:26;35.92;;;15.75;;
74215;SDS011;62577;53.378;-2.914;2022-11-04T01:33:52;33.60;;;15.23;;
74215;SDS011;62577;53.378;-2.914;2022-11-04T01:36:19;36.85;;;15.90;;
74215;SDS011;62577;53.378;-2.914;2022-11-04T01:38:45;33.35;;;14.52;;
74215;SDS011;62577;53.378;-2.914;2022-11-04T01:41:18;35.90;;;15.20;;
74215;SDS011;62577;53.378;-2.914;2022-11-04T01:48:49;28.63;;;14.15;;
74215;SDS011;62577;53.378;-2.914;2022-11-04T01:51:16;34.33;;;14.05;;
74215;SDS011;62577;53.378;-2.914;2022-11-04T01:53:42;34.35;;;13.75;;
74215;SDS011;62577;53.378;-2.914;2022-11-04T01:56:10;32.53;;;14.48;;
74215;SDS011;62577;53.378;-2.914;2022-11-04T01:58:38;28.63;;;11.18;;
74215;SDS011;62577;53.378;-2.914;2022-11-04T02:01:04;29.90;;;13.27;;
74215;SDS011;62577;53.378;-2.914;2022-11-04T02:03:31;30.45;;;13.57;;
74215;SDS011;62577;53.378;-2.914;2022-11-04T02:05:58;34.28;;;13.52;;
74215;SDS011;62577;53.378;-2.914;2022-11-04T02:08:25;38.17;;;15.07;;
74215;SDS011;62577;53.378;-2.914;2022-11-04T02:10:53;37.55;;;16.55;;
74215;SDS011;62577;53.378;-2.914;2022-11-04T02:13:21;33.33;;;13.93;;
74215;SDS011;62577;53.378;-2.914;2022-11-04T02:25:49;45.60;;;18.40;;
74215;SDS011;62577;53.378;-2.914;2022-11-04T02:31:13;41.05;;;16.45;;
74215;SDS011;62577;53.378;-2.914;2022-11-04T02:33:41;42.58;;;18.45;;
74215;SDS011;62577;53.378;-2.914;2022-11-04T02:43:52;32.00;;;11.88;;
74215;SDS011;62577;53.378;-2.914;2022-11-04T02:48:56;28.17;;;11.38;;
74215;SDS011;62577;53.378;-2.914;2022-11-04T02:52:11;27.38;;;11.90;;
74215;SDS011;62577;53.378;-2.914;2022-11-04T02:56:55;26.95;;;9.52;;
74215;SDS011;62577;53.378;-2.914;2022-11-04T02:59:39;20.50;;;8.15;;
74215;SDS011;62577;53.378;-2.914;2022-11-04T03:02:07;18.65;;;7.75;;
74215;SDS011;62577;53.378;-2.914;2022-11-04T03:04:39;22.58;;;7.20;;
74215;SDS011;62577;53.378;-2.914;2022-11-04T03:07:07;19.00;;;7.35;;
74215;SDS011;62577;53.378;-2.914;2022-11-04T03:09:35;16.80;;;7.05;;
74215;SDS011;62577;53.378;-2.914;2022-11-04T03:12:05;18.35;;;7.15;;
74215;SDS011;62577;53.378;-2.914;2022-11-04T03:16:58;17.20;;;7.07;;
74215;SDS011;62577;53.378;-2.914;2022-11-04T03:19:37;18.80;;;6.88;;
74215;SDS011;62577;53.378;-2.914;2022-11-04T03:22:04;20.35;;;7.25;;
74215;SDS011;62577;53.378;-2.914;2022-11-04T03:24:31;17.40;;;6.78;;
74215;SDS011;62577;53.378;-2.914;2022-11-04T03:29:33;15.82;;;7.18;;
74215;SDS011;62577;53.378;-2.914;2022-11-04T03:34:27;16.60;;;6.57;;
74215;SDS011;62577;53.378;-2.914;2022-11-04T03:36:53;13.57;;;6.38;;
74215;SDS011;62577;53.378;-2.914;2022-11-04T03:39:19;17.33;;;7.00;;
74215;SDS011;62577;53.378;-2.914;2022-11-04T03:41:47;15.30;;;6.28;;
74215;SDS011;62577;53.378;-2.914;2022-11-04T03:44:13;17.55;;;6.70;;
74215;SDS011;62577;53.378;-2.914;2022-11-04T03:46:39;18.25;;;6.47;;
74215;SDS011;62577;53.378;-2.914;2022-11-04T03:49:06;19.08;;;7.00;;
74215;SDS011;62577;53.378;-2.914;2022-11-04T03:51:33;15.20;;;6.55;;
74215;SDS011;62577;53.378;-2.914;2022-11-04T03:53:59;16.80;;;7.15;;
74215;SDS011;62577;53.378;-2.914;2022-11-04T03:56:34;15.45;;;6.18;;
74215;SDS011;62577;53.378;-2.914;2022-11-04T03:59:16;13.70;;;5.28;;
74215;SDS011;62577;53.378;-2.914;2022-11-04T04:01:50;19.15;;;6.10;;
74215;SDS011;62577;53.378;-2.914;2022-11-04T04:06:43;12.15;;;4.88;;
74215;SDS011;62577;53.378;-2.914;2022-11-04T04:09:20;12.70;;;5.53;;
74215;SDS011;62577;53.378;-2.914;2022-11-04T04:11:55;14.65;;;5.75;;
74215;SDS011;62577;53.378;-2.914;2022-11-04T04:14:38;13.95;;;6.22;;
74215;SDS011;62577;53.378;-2.914;2022-11-04T04:17:16;18.70;;;6.88;;
74215;SDS011;62577;53.378;-2.914;2022-11-04T04:19:45;13.15;;;5.88;;
74215;SDS011;62577;53.378;-2.914;2022-11-04T04:24:39;16.13;;;5.30;;
74215;SDS011;62577;53.378;-2.914;2022-11-04T04:27:25;12.57;;;5.60;;
74215;SDS011;62577;53.378;-2.914;2022-11-04T04:30:07;13.13;;;6.10;;
74215;SDS011;62577;53.378;-2.914;2022-11-04T04:32:44;13.98;;;5.28;;
74215;SDS011;62577;53.378;-2.914;2022-11-04T04:35:10;15.52;;;5.72;;
74215;SDS011;62577;53.378;-2.914;2022-11-04T04:37:56;13.18;;;7.10;;
74215;SDS011;62577;53.378;-2.914;2022-11-04T04:40:48;17.90;;;7.05;;
74215;SDS011;62577;53.378;-2.914;2022-11-04T04:43:35;18.83;;;6.57;;
74215;SDS011;62577;53.378;-2.914;2022-11-04T04:46:20;15.50;;;6.57;;
74215;SDS011;62577;53.378;-2.914;2022-11-04T04:48:46;16.70;;;6.07;;
74215;SDS011;62577;53.378;-2.914;2022-11-04T04:51:12;14.35;;;6.60;;
74215;SDS011;62577;53.378;-2.914;2022-11-04T04:53:38;15.30;;;6.47;;
74215;SDS011;62577;53.378;-2.914;2022-11-04T04:56:04;9.68;;;4.68;;
74215;SDS011;62577;53.378;-2.914;2022-11-04T04:58:30;15.43;;;5.85;;
74215;SDS011;62577;53.378;-2.914;2022-11-04T05:00:56;18.02;;;6.43;;
74215;SDS011;62577;53.378;-2.914;2022-11-04T05:03:23;14.35;;;5.47;;
74215;SDS011;62577;53.378;-2.914;2022-11-04T05:05:49;12.85;;;5.47;;
74215;SDS011;62577;53.378;-2.914;2022-11-04T05:08:15;15.00;;;5.03;;
74215;SDS011;62577;53.378;-2.914;2022-11-04T05:10:41;16.90;;;5.22;;
74215;SDS011;62577;53.378;-2.914;2022-11-04T05:13:08;12.07;;;3.83;;
74215;SDS011;62577;53.378;-2.914;2022-11-04T05:15:54;11.68;;;4.93;;
74215;SDS011;62577;53.378;-2.914;2022-11-04T05:18:21;13.27;;;4.30;;
74215;SDS011;62577;53.378;-2.914;2022-11-04T05:20:47;7.57;;;3.53;;
74215;SDS011;62577;53.378;-2.914;2022-11-04T05:23:13;16.38;;;5.07;;
74215;SDS011;62577;53.378;-2.914;2022-11-04T05:25:40;11.18;;;5.57;;
74215;SDS011;62577;53.378;-2.914;2022-11-04T05:28:06;12.40;;;3.78;;
74215;SDS011;62577;53.378;-2.914;2022-11-04T05:30:33;10.93;;;4.97;;
74215;SDS011;62577;53.378;-2.914;2022-11-04T05:32:59;10.70;;;4.63;;
74215;SDS011;62577;53.378;-2.914;2022-11-04T05:35:25;16.90;;;5.50;;
74215;SDS011;62577;53.378;-2.914;2022-11-04T05:37:51;16.50;;;5.95;;
74215;SDS011;62577;53.378;-2.914;2022-11-04T05:40:19;12.63;;;5.15;;
74215;SDS011;62577;53.378;-2.914;2022-11-04T05:42:45;16.33;;;5.88;;
74215;SDS011;62577;53.378;-2.914;2022-11-04T05:45:11;13.82;;;5.53;;
74215;SDS011;62577;53.378;-2.914;2022-11-04T05:47:37;12.15;;;5.72;;
74215;SDS011;62577;53.378;-2.914;2022-11-04T05:50:03;12.73;;;5.30;;
74215;SDS011;62577;53.378;-2.914;2022-11-04T05:52:29;11.77;;;4.97;;
74215;SDS011;62577;53.378;-2.914;2022-11-04T05:54:55;10.70;;;4.80;;
74215;SDS011;62577;53.378;-2.914;2022-11-04T05:57:21;12.98;;;4.85;;
74215;SDS011;62577;53.378;-2.914;2022-11-04T05:59:47;14.85;;;5.60;;
74215;SDS011;62577;53.378;-2.914;2022-11-04T06:02:13;14.38;;;5.22;;
74215;SDS011;62577;53.378;-2.914;2022-11-04T06:04:39;14.30;;;5.50;;
74215;SDS011;62577;53.378;-2.914;2022-11-04T06:07:05;12.88;;;6.45;;
74215;SDS011;62577;53.378;-2.914;2022-11-04T06:09:31;13.18;;;6.85;;
74215;SDS011;62577;53.378;-2.914;2022-11-04T06:12:10;19.02;;;6.50;;
74215;SDS011;62577;53.378;-2.914;2022-11-04T06:14:39;12.32;;;6.03;;
74215;SDS011;62577;53.378;-2.914;2022-11-04T06:17:05;15.88;;;7.72;;
74215;SDS011;62577;53.378;-2.914;2022-11-04T06:19:31;20.40;;;6.65;;
74215;SDS011;62577;53.378;-2.914;2022-11-04T06:21:57;16.08;;;7.88;;
74215;SDS011;62577;53.378;-2.914;2022-11-04T06:24:23;17.63;;;7.35;;
74215;SDS011;62577;53.378;-2.914;2022-11-04T06:26:49;15.57;;;6.03;;
74215;SDS011;62577;53.378;-2.914;2022-11-04T06:29:15;20.05;;;6.57;;
74215;SDS011;62577;53.378;-2.914;2022-11-04T06:31:41;15.57;;;7.18;;
74215;SDS011;62577;53.378;-2.914;2022-11-04T06:34:07;20.95;;;6.22;;
74215;SDS011;62577;53.378;-2.914;2022-11-04T06:36:33;13.65;;;6.18;;
74215;SDS011;62577;53.378;-2.914;2022-11-04T06:39:00;13.85;;;6.07;;
74215;SDS011;62577;53.378;-2.914;2022-11-04T06:41:26;15.55;;;5.55;;
74215;SDS011;62577;53.378;-2.914;2022-11-04T06:43:52;12.65;;;6.43;;
74215;SDS011;62577;53.378;-2.914;2022-11-04T06:46:34;11.02;;;5.50;;
74215;SDS011;62577;53.378;-2.914;2022-11-04T06:49:01;15.82;;;6.43;;
74215;SDS011;62577;53.378;-2.914;2022-11-04T06:51:28;18.70;;;6.35;;
74215;SDS011;62577;53.378;-2.914;2022-11-04T06:53:54;14.35;;;4.80;;
74215;SDS011;62577;53.378;-2.914;2022-11-04T06:56:20;17.17;;;6.35;;
74215;SDS011;62577;53.378;-2.914;2022-11-04T06:58:46;17.27;;;6.38;;
74215;SDS011;62577;53.378;-2.914;2022-11-04T07:01:13;13.38;;;6.97;;
74215;SDS011;62577;53.378;-2.914;2022-11-04T07:03:39;21.80;;;7.03;;
74215;SDS011;62577;53.378;-2.914;2022-11-04T07:06:08;20.00;;;7.43;;
74215;SDS011;62577;53.378;-2.914;2022-11-04T07:08:34;13.13;;;5.53;;
74215;SDS011;62577;53.378;-2.914;2022-11-04T07:11:00;18.27;;;6.30;;
74215;SDS011;62577;53.378;-2.914;2022-11-04T07:13:26;20.95;;;7.75;;
74215;SDS011;62577;53.378;-2.914;2022-11-04T07:15:53;18.60;;;8.52;;
74215;SDS011;62577;53.378;-2.914;2022-11-04T07:18:19;21.23;;;8.57;;
74215;SDS011;62577;53.378;-2.914;2022-11-04T07:20:45;23.45;;;8.52;;
74215;SDS011;62577;53.378;-2.914;2022-11-04T07:23:11;23.75;;;8.60;;
74215;SDS011;62577;53.378;-2.914;2022-11-04T07:25:37;16.65;;;7.35;;
74215;SDS011;62577;53.378;-2.914;2022-11-04T07:28:03;18.80;;;7.18;;
74215;SDS011;62577;53.378;-2.914;2022-11-04T07:30:30;17.65;;;7.05;;
74215;SDS011;62577;53.378;-2.914;2022-11-04T07:32:56;17.80;;;8.07;;
74215;SDS011;62577;53.378;-2.914;2022-11-04T07:35:23;12.07;;;6.80;;
74215;SDS011;62577;53.378;-2.914;2022-11-04T07:37:49;17.10;;;6.30;;
74215;SDS011;62577;53.378;-2.914;2022-11-04T07:40:15;14.77;;;5.50;;
74215;SDS011;62577;53.378;-2.914;2022-11-04T07:42:41;14.65;;;6.43;;
74215;SDS011;62577;53.378;-2.914;2022-11-04T07:45:07;9.75;;;4.55;;
74215;SDS011;62577;53.378;-2.914;2022-11-04T07:47:33;8.52;;;3.83;;
74215;SDS011;62577;53.378;-2.914;2022-11-04T07:49:59;13.18;;;4.57;;
74215;SDS011;62577;53.378;-2.914;2022-11-04T07:52:25;7.65;;;4.03;;
74215;SDS011;62577;53.378;-2.914;2022-11-04T07:54:51;7.97;;;3.80;;
74215;SDS011;62577;53.378;-2.914;2022-11-04T07:57:17;8.65;;;4.00;;
74215;SDS011;62577;53.378;-2.914;2022-11-04T07:59:43;8.77;;;3.85;;
74215;SDS011;62577;53.378;-2.914;2022-11-04T08:02:09;8.68;;;4.20;;
74215;SDS011;62577;53.378;-2.914;2022-11-04T08:04:36;11.18;;;4.38;;
74215;SDS011;62577;53.378;-2.914;2022-11-04T08:07:02;8.13;;;4.47;;
74215;SDS011;62577;53.378;-2.914;2022-11-04T08:09:31;9.70;;;4.35;;
74215;SDS011;62577;53.378;-2.914;2022-11-04T08:11:57;7.38;;;4.55;;
74215;SDS011;62577;53.378;-2.914;2022-11-04T08:14:23;7.85;;;4.82;;
74215;SDS011;62577;53.378;-2.914;2022-11-04T08:16:49;9.38;;;3.72;;
74215;SDS011;62577;53.378;-2.914;2022-11-04T08:19:15;6.22;;;2.38;;
74215;SDS011;62577;53.378;-2.914;2022-11-04T08:21:42;7.13;;;2.67;;
74215;SDS011;62577;53.378;-2.914;2022-11-04T08:24:08;6.32;;;1.23;;
74215;SDS011;62577;53.378;-2.914;2022-11-04T08:26:34;2.38;;;0.55;;
74215;SDS011;62577;53.378;-2.914;2022-11-04T08:29:00;4.82;;;1.58;;
74215;SDS011;62577;53.378;-2.914;2022-11-04T08:31:27;2.25;;;0.60;;
74215;SDS011;62577;53.378;-2.914;2022-11-04T08:33:54;3.08;;;0.80;;
74215;SDS011;62577;53.378;-2.914;2022-11-04T08:36:22;3.28;;;0.73;;
74215;SDS011;62577;53.378;-2.914;2022-11-04T08:38:48;2.60;;;0.60;;
74215;SDS011;62577;53.378;-2.914;2022-11-04T08:41:16;3.22;;;0.57;;
74215;SDS011;62577;53.378;-2.914;2022-11-04T08:43:43;3.35;;;0.63;;
74215;SDS011;62577;53.378;-2.914;2022-11-04T08:46:09;3.83;;;0.93;;
74215;SDS011;62577;53.378;-2.914;2022-11-04T08:48:36;3.28;;;0.70;;
74215;SDS011;62577;53.378;-2.914;2022-11-04T08:51:04;3.47;;;0.63;;
74215;SDS011;62577;53.378;-2.914;2022-11-04T08:53:30;6.72;;;2.00;;
74215;SDS011;62577;53.378;-2.914;2022-11-04T08:55:56;7.00;;;1.35;;
74215;SDS011;62577;53.378;-2.914;2022-11-04T08:58:23;3.47;;;0.35;;
74215;SDS011;62577;53.378;-2.914;2022-11-04T09:00:49;3.20;;;0.55;;
74215;SDS011;62577;53.378;-2.914;2022-11-04T09:03:15;2.08;;;0.38;;
74215;SDS011;62577;53.378;-2.914;2022-11-04T09:05:41;3.45;;;0.65;;
74215;SDS011;62577;53.378;-2.914;2022-11-04T09:08:13;1.50;;;0.38;;
74215;SDS011;62577;53.378;-2.914;2022-11-04T09:10:44;3.55;;;0.47;;
74215;SDS011;62577;53.378;-2.914;2022-11-04T09:13:11;4.47;;;0.52;;
74215;SDS011;62577;53.378;-2.914;2022-11-04T09:15:37;2.00;;;0.82;;
74215;SDS011;62577;53.378;-2.914;2022-11-04T09:18:03;6.00;;;0.77;;
74215;SDS011;62577;53.378;-2.914;2022-11-04T09:20:29;5.50;;;1.23;;
74215;SDS011;62577;53.378;-2.914;2022-11-04T09:22:56;4.72;;;1.02;;
74215;SDS011;62577;53.378;-2.914;2022-11-04T09:25:22;5.22;;;2.15;;
74215;SDS011;62577;53.378;-2.914;2022-11-04T09:27:48;4.05;;;0.88;;
74215;SDS011;62577;53.378;-2.914;2022-11-04T09:30:14;2.65;;;0.70;;
74215;SDS011;62577;53.378;-2.914;2022-11-04T09:32:40;5.35;;;0.90;;
74215;SDS011;62577;53.378;-2.914;2022-11-04T09:35:06;3.72;;;1.10;;
74215;SDS011;62577;53.378;-2.914;2022-11-04T09:37:32;5.75;;;0.60;;
74215;SDS011;62577;53.378;-2.914;2022-11-04T09:39:58;3.55;;;1.40;;
74215;SDS011;62577;53.378;-2.914;2022-11-04T09:44:53;3.70;;;0.55;;
74215;SDS011;62577;53.378;-2.914;2022-11-04T09:47:20;2.75;;;0.55;;
74215;SDS011;62577;53.378;-2.914;2022-11-04T09:49:48;5.90;;;1.60;;
74215;SDS011;62577;53.378;-2.914;2022-11-04T09:52:25;3.22;;;1.10;;
74215;SDS011;62577;53.378;-2.914;2022-11-04T09:57:20;6.88;;;6.03;;
74215;SDS011;62577;53.378;-2.914;2022-11-04T09:59:46;2.33;;;0.70;;
74215;SDS011;62577;53.378;-2.914;2022-11-04T10:05:00;2.22;;;0.30;;
74215;SDS011;62577;53.378;-2.914;2022-11-04T10:13:04;8.40;;;7.55;;
74215;SDS011;62577;53.378;-2.914;2022-11-04T10:18:06;4.10;;;1.40;;
74215;SDS011;62577;53.378;-2.914;2022-11-04T10:23:24;3.28;;;0.30;;
74215;SDS011;62577;53.378;-2.914;2022-11-04T10:26:00;3.17;;;0.60;;
74215;SDS011;62577;53.378;-2.914;2022-11-04T10:28:32;2.58;;;0.52;;
74215;SDS011;62577;53.378;-2.914;2022-11-04T10:31:00;2.92;;;0.40;;
74215;SDS011;62577;53.378;-2.914;2022-11-04T10:33:29;1.30;;;0.22;;
74215;SDS011;62577;53.378;-2.914;2022-11-04T10:36:05;2.95;;;0.60;;
74215;SDS011;62577;53.378;-2.914;2022-11-04T10:43:56;3.22;;;0.73;;
74215;SDS011;62577;53.378;-2.914;2022-11-04T10:51:21;3.88;;;0.50;;
74215;SDS011;62577;53.378;-2.914;2022-11-04T10:53:56;4.13;;;0.63;;
74215;SDS011;62577;53.378;-2.914;2022-11-04T10:56:44;3.45;;;0.43;;
74215;SDS011;62577;53.378;-2.914;2022-11-04T11:01:47;1.67;;;0.45;;
74215;SDS011;62577;53.378;-2.914;2022-11-04T11:04:23;1.75;;;0.52;;
74215;SDS011;62577;53.378;-2.914;2022-11-04T11:11:48;6.55;;;1.10;;
74215;SDS011;62577;53.378;-2.914;2022-11-04T11:14:16;2.75;;;0.63;;
74215;SDS011;62577;53.378;-2.914;2022-11-04T11:16:42;3.45;;;0.60;;
74215;SDS011;62577;53.378;-2.914;2022-11-04T11:19:14;4.45;;;0.57;;
74215;SDS011;62577;53.378;-2.914;2022-11-04T11:21:48;2.60;;;0.65;;
74215;SDS011;62577;53.378;-2.914;2022-11-04T11:24:18;1.65;;;0.50;;
74215;SDS011;62577;53.378;-2.914;2022-11-04T11:26:44;3.63;;;0.43;;
74215;SDS011;62577;53.378;-2.914;2022-11-04T11:29:32;2.60;;;0.60;;
74215;SDS011;62577;53.378;-2.914;2022-11-04T11:32:04;5.63;;;0.70;;
74215;SDS011;62577;53.378;-2.914;2022-11-04T11:34:32;2.00;;;0.57;;
74215;SDS011;62577;53.378;-2.914;2022-11-04T11:37:01;3.53;;;0.52;;
74215;SDS011;62577;53.378;-2.914;2022-11-04T11:39:29;6.75;;;1.48;;
74215;SDS011;62577;53.378;-2.914;2022-11-04T11:42:00;1.67;;;0.65;;
74215;SDS011;62577;53.378;-2.914;2022-11-04T11:44:28;3.75;;;0.40;;
74215;SDS011;62577;53.378;-2.914;2022-11-04T11:47:00;2.25;;;0.20;;
74215;SDS011;62577;53.378;-2.914;2022-11-04T11:49:28;2.75;;;0.20;;
74215;SDS011;62577;53.378;-2.914;2022-11-04T11:51:55;2.55;;;0.40;;
74215;SDS011;62577;53.378;-2.914;2022-11-04T11:54:41;0.90;;;0.20;;
74215;SDS011;62577;53.378;-2.914;2022-11-04T11:57:12;1.73;;;0.20;;
74215;SDS011;62577;53.378;-2.914;2022-11-04T11:59:49;3.80;;;0.32;;
74215;SDS011;62577;53.378;-2.914;2022-11-04T12:05:02;3.00;;;0.57;;
74215;SDS011;62577;53.378;-2.914;2022-11-04T12:13:05;1.23;;;0.25;;
74215;SDS011;62577;53.378;-2.914;2022-11-04T12:23:23;1.85;;;0.35;;
74215;SDS011;62577;53.378;-2.914;2022-11-04T12:43:48;3.95;;;0.50;;
74215;SDS011;62577;53.378;-2.914;2022-11-04T12:48:47;1.55;;;0.35;;
74215;SDS011;62577;53.378;-2.914;2022-11-04T12:51:29;1.90;;;0.38;;
74215;SDS011;62577;53.378;-2.914;2022-11-04T12:54:04;2.28;;;0.13;;
74215;SDS011;62577;53.378;-2.914;2022-11-04T12:56:37;3.17;;;0.55;;
74215;SDS011;62577;53.378;-2.914;2022-11-04T12:59:28;1.83;;;0.28;;
74215;SDS011;62577;53.378;-2.914;2022-11-04T13:04:20;7.28;;;0.60;;
74215;SDS011;62577;53.378;-2.914;2022-11-04T13:06:50;2.17;;;0.63;;
74215;SDS011;62577;53.378;-2.914;2022-11-04T13:09:22;1.42;;;0.10;;
74215;SDS011;62577;53.378;-2.914;2022-11-04T13:14:16;4.25;;;0.30;;
74215;SDS011;62577;53.378;-2.914;2022-11-04T13:16:46;4.00;;;0.20;;
74215;SDS011;62577;53.378;-2.914;2022-11-04T13:19:26;0.93;;;0.50;;
74215;SDS011;62577;53.378;-2.914;2022-11-04T13:21:55;2.97;;;0.32;;
74215;SDS011;62577;53.378;-2.914;2022-11-04T13:24:25;1.42;;;0.28;;
74215;SDS011;62577;53.378;-2.914;2022-11-04T13:27:02;4.78;;;0.35;;
74215;SDS011;62577;53.378;-2.914;2022-11-04T13:29:29;4.32;;;0.90;;
74215;SDS011;62577;53.378;-2.914;2022-11-04T13:32:06;2.47;;;0.70;;
74215;SDS011;62577;53.378;-2.914;2022-11-04T13:45:03;3.22;;;0.80;;
74215;SDS011;62577;53.378;-2.914;2022-11-04T13:47:36;2.75;;;0.47;;
74215;SDS011;62577;53.378;-2.914;2022-11-04T13:50:13;4.80;;;0.60;;
74215;SDS011;62577;53.378;-2.914;2022-11-04T13:52:51;1.58;;;0.35;;
74215;SDS011;62577;53.378;-2.914;2022-11-04T13:55:17;2.55;;;0.45;;
74215;SDS011;62577;53.378;-2.914;2022-11-04T14:02:44;3.28;;;0.35;;
74215;SDS011;62577;53.378;-2.914;2022-11-04T14:08:22;3.78;;;0.40;;
74215;SDS011;62577;53.378;-2.914;2022-11-04T14:16:02;2.35;;;0.35;;
74215;SDS011;62577;53.378;-2.914;2022-11-04T14:18:30;2.75;;;0.65;;
74215;SDS011;62577;53.378;-2.914;2022-11-04T14:21:02;2.85;;;0.32;;
74215;SDS011;62577;53.378;-2.914;2022-11-04T14:23:28;3.75;;;0.38;;
74215;SDS011;62577;53.378;-2.914;2022-11-04T14:25:58;2.25;;;0.40;;
74215;SDS011;62577;53.378;-2.914;2022-11-04T14:28:26;2.25;;;0.22;;
74215;SDS011;62577;53.378;-2.914;2022-11-04T14:30:53;4.22;;;0.80;;
74215;SDS011;62577;53.378;-2.914;2022-11-04T14:35:55;3.60;;;0.60;;
74215;SDS011;62577;53.378;-2.914;2022-11-04T14:38:28;2.13;;;0.40;;
74215;SDS011;62577;53.378;-2.914;2022-11-04T14:43:57;4.70;;;0.40;;
74215;SDS011;62577;53.378;-2.914;2022-11-04T14:46:25;4.30;;;0.70;;
74215;SDS011;62577;53.378;-2.914;2022-11-04T14:48:54;3.08;;;0.35;;
74215;SDS011;62577;53.378;-2.914;2022-11-04T14:53:51;2.55;;;0.45;;
74215;SDS011;62577;53.378;-2.914;2022-11-04T14:56:22;5.53;;;0.80;;
74215;SDS011;62577;53.378;-2.914;2022-11-04T15:01:21;4.95;;;1.13;;
74215;SDS011;62577;53.378;-2.914;2022-11-04T15:03:47;3.28;;;0.40;;
74215;SDS011;62577;53.378;-2.914;2022-11-04T15:06:21;3.83;;;0.55;;
74215;SDS011;62577;53.378;-2.914;2022-11-04T15:13:44;3.05;;;0.55;;
74215;SDS011;62577;53.378;-2.914;2022-11-04T15:16:14;2.97;;;0.38;;
74215;SDS011;62577;53.378;-2.914;2022-11-04T15:18:41;3.17;;;0.63;;
74215;SDS011;62577;53.378;-2.914;2022-11-04T15:21:07;5.55;;;0.52;;
74215;SDS011;62577;53.378;-2.914;2022-11-04T15:23:41;2.85;;;0.30;;
74215;SDS011;62577;53.378;-2.914;2022-11-04T15:28:44;1.63;;;0.30;;
74215;SDS011;62577;53.378;-2.914;2022-11-04T15:33:49;3.40;;;0.95;;
74215;SDS011;62577;53.378;-2.914;2022-11-04T15:36:17;3.75;;;0.70;;
74215;SDS011;62577;53.378;-2.914;2022-11-04T15:38:49;3.00;;;0.40;;
74215;SDS011;62577;53.378;-2.914;2022-11-04T15:41:17;4.43;;;0.60;;
74215;SDS011;62577;53.378;-2.914;2022-11-04T15:44:02;6.38;;;0.90;;
74215;SDS011;62577;53.378;-2.914;2022-11-04T15:46:29;7.25;;;1.08;;
74215;SDS011;62577;53.378;-2.914;2022-11-04T15:49:05;4.53;;;0.65;;
74215;SDS011;62577;53.378;-2.914;2022-11-04T15:51:35;2.58;;;0.60;;
74215;SDS011;62577;53.378;-2.914;2022-11-04T15:54:06;4.25;;;0.80;;
74215;SDS011;62577;53.378;-2.914;2022-11-04T15:56:40;4.72;;;0.60;;
74215;SDS011;62577;53.378;-2.914;2022-11-04T15:59:08;4.13;;;1.00;;
74215;SDS011;62577;53.378;-2.914;2022-11-04T16:01:41;4.47;;;0.95;;
74215;SDS011;62577;53.378;-2.914;2022-11-04T16:04:09;5.90;;;1.00;;
74215;SDS011;62577;53.378;-2.914;2022-11-04T16:09:25;3.72;;;0.80;;
74215;SDS011;62577;53.378;-2.914;2022-11-04T16:12:04;7.75;;;1.15;;
74215;SDS011;62577;53.378;-2.914;2022-11-04T16:14:30;7.13;;;1.95;;
74215;SDS011;62577;53.378;-2.914;2022-11-04T16:16:57;6.13;;;2.05;;
74215;SDS011;62577;53.378;-2.914;2022-11-04T16:19:23;4.35;;;1.20;;
74215;SDS011;62577;53.378;-2.914;2022-11-04T16:22:06;7.97;;;1.40;;
74215;SDS011;62577;53.378;-2.914;2022-11-04T16:24:36;6.53;;;1.17;;
74215;SDS011;62577;53.378;-2.914;2022-11-04T16:27:09;5.60;;;1.17;;
74215;SDS011;62577;53.378;-2.914;2022-11-04T16:29:36;4.65;;;1.00;;
74215;SDS011;62577;53.378;-2.914;2022-11-04T16:32:04;3.95;;;0.82;;
74215;SDS011;62577;53.378;-2.914;2022-11-04T16:34:31;4.90;;;1.08;;
74215;SDS011;62577;53.378;-2.914;2022-11-04T16:36:57;5.60;;;0.80;;
74215;SDS011;62577;53.378;-2.914;2022-11-04T16:39:23;5.15;;;1.50;;
74215;SDS011;62577;53.378;-2.914;2022-11-04T16:41:49;9.40;;;1.67;;
74215;SDS011;62577;53.378;-2.914;2022-11-04T16:44:19;4.47;;;1.50;;
74215;SDS011;62577;53.378;-2.914;2022-11-04T16:46:46;6.60;;;1.52;;
74215;SDS011;62577;53.378;-2.914;2022-11-04T16:49:13;8.63;;;1.90;;
74215;SDS011;62577;53.378;-2.914;2022-11-04T16:51:39;7.60;;;2.75;;
74215;SDS011;62577;53.378;-2.914;2022-11-04T16:54:06;8.70;;;1.95;;
74215;SDS011;62577;53.378;-2.914;2022-11-04T16:56:33;7.20;;;1.10;;
74215;SDS011;62577;53.378;-2.914;2022-11-04T16:58:59;5.97;;;1.55;;
74215;SDS011;62577;53.378;-2.914;2022-11-04T17:01:25;4.90;;;0.90;;
74215;SDS011;62577;53.378;-2.914;2022-11-04T17:03:51;6.78;;;1.08;;
74215;SDS011;62577;53.378;-2.914;2022-11-04T17:06:18;4.28;;;0.80;;
74215;SDS011;62577;53.378;-2.914;2022-11-04T17:08:44;3.25;;;1.05;;
74215;SDS011;62577;53.378;-2.914;2022-11-04T17:11:10;9.77;;;3.20;;
74215;SDS011;62577;53.378;-2.914;2022-11-04T17:13:37;7.65;;;2.53;;
74215;SDS011;62577;53.378;-2.914;2022-11-04T17:16:03;6.78;;;1.35;;
74215;SDS011;62577;53.378;-2.914;2022-11-04T17:18:30;8.52;;;1.17;;
74215;SDS011;62577;53.378;-2.914;2022-11-04T17:20:56;6.18;;;1.42;;
74215;SDS011;62577;53.378;-2.914;2022-11-04T17:23:23;8.40;;;1.92;;
74215;SDS011;62577;53.378;-2.914;2022-11-04T17:25:50;4.45;;;1.83;;